sensor_id;sensor_type;location;lat;lon;timestamp;pressure;altitude;pressure_sealevel;temperature;humidity
11339;BME280;5724;42.684;23.252;2023-04-30T00:01:37;94052.41;;;9.83;79.20
11339;BME280;5724;42.684;23.252;2023-04-30T00:04:03;94056.72;;;9.84;78.76
11339;BME280;5724;42.684;23.252;2023-04-30T00:06:28;94054.78;;;9.84;79.81
11339;BME280;5724;42.684;23.252;2023-04-30T00:08:54;94044.59;;;9.81;80.41
11339;BME280;5724;42.684;23.252;2023-04-30T00:11:19;94050.41;;;9.80;80.19
11339;BME280;5724;42.684;23.252;2023-04-30T00:13:45;94047.91;;;9.71;80.95
11339;BME280;5724;42.684;23.252;2023-04-30T00:16:10;94044.25;;;9.63;81.97
11339;BME280;5724;42.684;23.252;2023-04-30T00:18:37;94052.66;;;9.55;82.80
11339;BME280;5724;42.684;23.252;2023-04-30T00:21:02;94054.00;;;9.45;84.65
11339;BME280;5724;42.684;23.252;2023-04-30T00:23:28;94054.38;;;9.43;84.11
11339;BME280;5724;42.684;23.252;2023-04-30T00:25:54;94041.72;;;9.35;84.59
11339;BME280;5724;42.684;23.252;2023-04-30T00:28:19;94047.28;;;9.39;84.66
11339;BME280;5724;42.684;23.252;2023-04-30T00:30:45;94043.66;;;9.35;84.56
11339;BME280;5724;42.684;23.252;2023-04-30T00:33:10;94045.19;;;9.32;84.13
11339;BME280;5724;42.684;23.252;2023-04-30T00:35:36;94051.94;;;9.19;83.82
11339;BME280;5724;42.684;23.252;2023-04-30T00:38:01;94057.97;;;9.28;83.14
11339;BME280;5724;42.684;23.252;2023-04-30T00:40:28;94048.53;;;9.26;83.19
11339;BME280;5724;42.684;23.252;2023-04-30T00:42:53;94048.69;;;9.33;83.08
11339;BME280;5724;42.684;23.252;2023-04-30T00:45:22;94051.72;;;9.28;82.51
11339;BME280;5724;42.684;23.252;2023-04-30T00:47:48;94044.09;;;9.17;81.53
11339;BME280;5724;42.684;23.252;2023-04-30T00:50:14;94031.91;;;9.11;81.95
11339;BME280;5724;42.684;23.252;2023-04-30T00:52:43;94036.16;;;9.28;81.34
11339;BME280;5724;42.684;23.252;2023-04-30T00:55:12;94050.16;;;9.27;81.10
11339;BME280;5724;42.684;23.252;2023-04-30T00:57:38;94042.41;;;9.29;80.80
11339;BME280;5724;42.684;23.252;2023-04-30T01:00:06;94048.34;;;9.34;80.76
11339;BME280;5724;42.684;23.252;2023-04-30T01:02:34;94042.53;;;9.36;80.87
11339;BME280;5724;42.684;23.252;2023-04-30T01:05:01;94035.16;;;9.36;80.52
11339;BME280;5724;42.684;23.252;2023-04-30T01:07:28;94042.41;;;9.29;80.88
11339;BME280;5724;42.684;23.252;2023-04-30T01:09:54;94034.22;;;9.29;81.26
11339;BME280;5724;42.684;23.252;2023-04-30T01:15:17;94029.47;;;9.26;81.95
11339;BME280;5724;42.684;23.252;2023-04-30T01:17:55;94034.66;;;9.31;81.60
11339;BME280;5724;42.684;23.252;2023-04-30T01:20:22;94040.38;;;9.26;81.79
11339;BME280;5724;42.684;23.252;2023-04-30T01:22:56;94039.25;;;9.27;81.35
11339;BME280;5724;42.684;23.252;2023-04-30T01:28:15;94030.53;;;9.21;81.28
11339;BME280;5724;42.684;23.252;2023-04-30T01:30:42;94027.97;;;9.28;81.45
11339;BME280;5724;42.684;23.252;2023-04-30T01:33:09;94034.50;;;9.24;82.09
11339;BME280;5724;42.684;23.252;2023-04-30T01:40:57;94037.94;;;8.85;84.03
11339;BME280;5724;42.684;23.252;2023-04-30T01:51:41;94051.00;;;8.45;87.66
11339;BME280;5724;42.684;23.252;2023-04-30T01:54:29;94042.66;;;8.53;87.38
11339;BME280;5724;42.684;23.252;2023-04-30T01:57:02;94053.72;;;8.60;87.20
11339;BME280;5724;42.684;23.252;2023-04-30T01:59:39;94047.63;;;8.67;86.47
11339;BME280;5724;42.684;23.252;2023-04-30T02:02:07;94050.28;;;8.48;87.88
11339;BME280;5724;42.684;23.252;2023-04-30T02:04:32;94049.97;;;8.49;87.90
11339;BME280;5724;42.684;23.252;2023-04-30T02:06:58;94040.66;;;8.50;87.45
11339;BME280;5724;42.684;23.252;2023-04-30T02:09:24;94050.09;;;8.56;86.84
11339;BME280;5724;42.684;23.252;2023-04-30T02:11:49;94044.66;;;8.56;87.25
11339;BME280;5724;42.684;23.252;2023-04-30T02:14:15;94051.69;;;8.57;87.06
11339;BME280;5724;42.684;23.252;2023-04-30T02:16:41;94043.50;;;8.57;87.13
11339;BME280;5724;42.684;23.252;2023-04-30T02:19:07;94050.72;;;8.66;86.77
11339;BME280;5724;42.684;23.252;2023-04-30T02:21:32;94047.31;;;8.69;86.74
11339;BME280;5724;42.684;23.252;2023-04-30T02:23:58;94038.84;;;8.74;86.99
11339;BME280;5724;42.684;23.252;2023-04-30T02:26:23;94028.56;;;8.67;87.05
11339;BME280;5724;42.684;23.252;2023-04-30T02:28:50;93985.84;;;8.36;86.70
11339;BME280;5724;42.684;23.252;2023-04-30T02:31:16;94032.53;;;8.70;87.15
11339;BME280;5724;42.684;23.252;2023-04-30T02:33:41;94031.09;;;8.76;86.55
11339;BME280;5724;42.684;23.252;2023-04-30T02:36:07;94034.63;;;8.76;86.74
11339;BME280;5724;42.684;23.252;2023-04-30T02:38:32;94043.34;;;8.66;88.10
11339;BME280;5724;42.684;23.252;2023-04-30T02:40:58;94050.72;;;8.66;88.55
11339;BME280;5724;42.684;23.252;2023-04-30T02:43:23;94036.84;;;8.71;88.19
11339;BME280;5724;42.684;23.252;2023-04-30T02:45:49;94016.81;;;8.63;87.87
11339;BME280;5724;42.684;23.252;2023-04-30T02:48:14;94040.41;;;8.75;88.06
11339;BME280;5724;42.684;23.252;2023-04-30T02:50:40;94034.13;;;8.71;88.24
11339;BME280;5724;42.684;23.252;2023-04-30T02:53:05;94049.94;;;8.65;88.67
11339;BME280;5724;42.684;23.252;2023-04-30T02:55:30;94043.50;;;8.73;88.09
11339;BME280;5724;42.684;23.252;2023-04-30T02:57:57;94058.63;;;8.71;88.35
11339;BME280;5724;42.684;23.252;2023-04-30T03:00:22;94021.19;;;8.68;87.84
11339;BME280;5724;42.684;23.252;2023-04-30T03:02:48;94045.97;;;8.78;87.65
11339;BME280;5724;42.684;23.252;2023-04-30T03:05:13;94044.91;;;8.67;87.74
11339;BME280;5724;42.684;23.252;2023-04-30T03:07:40;94056.75;;;8.75;88.36
11339;BME280;5724;42.684;23.252;2023-04-30T03:10:06;94046.75;;;8.79;87.92
11339;BME280;5724;42.684;23.252;2023-04-30T03:12:32;94048.69;;;8.78;88.26
11339;BME280;5724;42.684;23.252;2023-04-30T03:14:57;94059.38;;;8.87;87.79
11339;BME280;5724;42.684;23.252;2023-04-30T03:17:23;94052.28;;;8.82;87.90
11339;BME280;5724;42.684;23.252;2023-04-30T03:19:49;94060.53;;;8.86;87.97
11339;BME280;5724;42.684;23.252;2023-04-30T03:22:15;94062.56;;;8.89;87.88
11339;BME280;5724;42.684;23.252;2023-04-30T03:24:43;94056.38;;;8.92;88.18
11339;BME280;5724;42.684;23.252;2023-04-30T03:27:09;94059.47;;;8.91;88.26
11339;BME280;5724;42.684;23.252;2023-04-30T03:29:35;94061.13;;;8.95;88.44
11339;BME280;5724;42.684;23.252;2023-04-30T03:32:00;94065.34;;;8.93;88.94
11339;BME280;5724;42.684;23.252;2023-04-30T03:34:25;94060.53;;;8.86;90.10
11339;BME280;5724;42.684;23.252;2023-04-30T03:36:51;94059.31;;;8.83;90.19
11339;BME280;5724;42.684;23.252;2023-04-30T03:39:17;94075.84;;;8.75;90.09
11339;BME280;5724;42.684;23.252;2023-04-30T03:41:42;94080.84;;;8.73;90.00
11339;BME280;5724;42.684;23.252;2023-04-30T03:44:08;94085.44;;;8.69;90.27
11339;BME280;5724;42.684;23.252;2023-04-30T03:46:42;94075.47;;;8.76;90.26
11339;BME280;5724;42.684;23.252;2023-04-30T03:49:08;94068.56;;;8.79;90.11
11339;BME280;5724;42.684;23.252;2023-04-30T03:51:35;94086.63;;;8.87;89.84
11339;BME280;5724;42.684;23.252;2023-04-30T03:54:06;94082.06;;;8.91;89.54
11339;BME280;5724;42.684;23.252;2023-04-30T03:56:32;94081.09;;;8.99;90.17
11339;BME280;5724;42.684;23.252;2023-04-30T03:58:58;94094.53;;;8.92;90.80
11339;BME280;5724;42.684;23.252;2023-04-30T04:01:24;94092.78;;;8.84;91.43
11339;BME280;5724;42.684;23.252;2023-04-30T04:03:49;94098.13;;;8.96;90.88
11339;BME280;5724;42.684;23.252;2023-04-30T04:06:15;94093.25;;;9.05;90.20
11339;BME280;5724;42.684;23.252;2023-04-30T04:08:41;94099.69;;;8.97;90.65
11339;BME280;5724;42.684;23.252;2023-04-30T04:11:09;94099.19;;;8.92;90.22
11339;BME280;5724;42.684;23.252;2023-04-30T04:13:35;94100.84;;;8.96;90.52
11339;BME280;5724;42.684;23.252;2023-04-30T04:16:00;94103.50;;;8.93;90.36
11339;BME280;5724;42.684;23.252;2023-04-30T04:18:25;94100.84;;;8.96;90.37
11339;BME280;5724;42.684;23.252;2023-04-30T04:20:51;94105.16;;;8.97;89.71
11339;BME280;5724;42.684;23.252;2023-04-30T04:23:17;94100.66;;;9.05;89.20
11339;BME280;5724;42.684;23.252;2023-04-30T04:25:42;94106.88;;;9.05;89.17
11339;BME280;5724;42.684;23.252;2023-04-30T04:28:08;94117.97;;;9.12;88.31
11339;BME280;5724;42.684;23.252;2023-04-30T04:30:34;94106.22;;;8.77;88.84
11339;BME280;5724;42.684;23.252;2023-04-30T04:33:00;94118.09;;;8.84;88.76
11339;BME280;5724;42.684;23.252;2023-04-30T04:35:26;94113.44;;;8.85;88.39
11339;BME280;5724;42.684;23.252;2023-04-30T04:37:52;94112.28;;;8.86;88.61
11339;BME280;5724;42.684;23.252;2023-04-30T04:40:17;94118.94;;;9.04;88.37
11339;BME280;5724;42.684;23.252;2023-04-30T04:42:43;94111.09;;;9.18;87.51
11339;BME280;5724;42.684;23.252;2023-04-30T04:45:08;94122.38;;;9.17;88.06
11339;BME280;5724;42.684;23.252;2023-04-30T04:47:35;94118.56;;;9.22;88.03
11339;BME280;5724;42.684;23.252;2023-04-30T04:50:02;94117.81;;;9.40;87.07
11339;BME280;5724;42.684;23.252;2023-04-30T04:52:27;94128.34;;;9.42;85.62
11339;BME280;5724;42.684;23.252;2023-04-30T04:54:53;94123.69;;;9.42;85.22
11339;BME280;5724;42.684;23.252;2023-04-30T04:57:18;94123.50;;;9.51;85.08
11339;BME280;5724;42.684;23.252;2023-04-30T04:59:43;94123.84;;;9.50;84.77
11339;BME280;5724;42.684;23.252;2023-04-30T05:02:09;94125.50;;;9.54;85.55
11339;BME280;5724;42.684;23.252;2023-04-30T05:04:35;94118.03;;;9.51;85.51
11339;BME280;5724;42.684;23.252;2023-04-30T05:07:00;94122.34;;;9.52;86.17
11339;BME280;5724;42.684;23.252;2023-04-30T05:09:26;94120.13;;;9.58;86.20
11339;BME280;5724;42.684;23.252;2023-04-30T05:11:51;94125.72;;;9.65;86.14
11339;BME280;5724;42.684;23.252;2023-04-30T05:14:17;94124.50;;;9.82;85.28
11339;BME280;5724;42.684;23.252;2023-04-30T05:16:42;94125.59;;;9.58;86.21
11339;BME280;5724;42.684;23.252;2023-04-30T05:19:08;94129.25;;;9.46;87.14
11339;BME280;5724;42.684;23.252;2023-04-30T05:21:34;94135.22;;;9.71;86.08
11339;BME280;5724;42.684;23.252;2023-04-30T05:24:00;94139.31;;;9.81;85.67
11339;BME280;5724;42.684;23.252;2023-04-30T05:26:25;94132.63;;;9.97;85.47
11339;BME280;5724;42.684;23.252;2023-04-30T05:28:51;94132.91;;;9.92;85.64
11339;BME280;5724;42.684;23.252;2023-04-30T05:31:16;94128.41;;;9.81;85.34
11339;BME280;5724;42.684;23.252;2023-04-30T05:33:42;94122.66;;;9.86;85.24
11339;BME280;5724;42.684;23.252;2023-04-30T05:36:09;94121.56;;;9.90;85.36
11339;BME280;5724;42.684;23.252;2023-04-30T05:38:34;94131.34;;;9.91;85.41
11339;BME280;5724;42.684;23.252;2023-04-30T05:41:00;94129.47;;;9.95;85.55
11339;BME280;5724;42.684;23.252;2023-04-30T05:43:25;94128.03;;;10.01;85.05
11339;BME280;5724;42.684;23.252;2023-04-30T05:45:51;94126.22;;;10.09;85.79
11339;BME280;5724;42.684;23.252;2023-04-30T05:48:16;94126.78;;;10.18;86.23
11339;BME280;5724;42.684;23.252;2023-04-30T05:50:42;94126.88;;;10.22;85.89
11339;BME280;5724;42.684;23.252;2023-04-30T05:53:07;94122.91;;;10.19;85.77
11339;BME280;5724;42.684;23.252;2023-04-30T05:55:33;94131.19;;;10.42;84.41
11339;BME280;5724;42.684;23.252;2023-04-30T05:57:58;94136.75;;;10.49;83.88
11339;BME280;5724;42.684;23.252;2023-04-30T06:00:24;94133.31;;;10.52;83.56
11339;BME280;5724;42.684;23.252;2023-04-30T06:02:50;94127.72;;;10.68;83.26
11339;BME280;5724;42.684;23.252;2023-04-30T06:05:17;94133.66;;;10.51;83.89
11339;BME280;5724;42.684;23.252;2023-04-30T06:07:42;94141.19;;;10.80;83.05
11339;BME280;5724;42.684;23.252;2023-04-30T06:10:08;94107.34;;;10.62;82.54
11339;BME280;5724;42.684;23.252;2023-04-30T06:12:34;94143.59;;;10.82;82.35
11339;BME280;5724;42.684;23.252;2023-04-30T06:15:00;94146.53;;;10.96;82.06
11339;BME280;5724;42.684;23.252;2023-04-30T06:17:25;94146.00;;;11.10;81.81
11339;BME280;5724;42.684;23.252;2023-04-30T06:19:50;94144.63;;;11.23;81.65
11339;BME280;5724;42.684;23.252;2023-04-30T06:22:16;94154.13;;;11.29;81.22
11339;BME280;5724;42.684;23.252;2023-04-30T06:24:41;94148.19;;;11.01;81.53
11339;BME280;5724;42.684;23.252;2023-04-30T06:27:07;94156.81;;;11.03;81.41
11339;BME280;5724;42.684;23.252;2023-04-30T06:29:32;94153.66;;;10.78;81.62
11339;BME280;5724;42.684;23.252;2023-04-30T06:31:58;94153.53;;;10.71;82.36
11339;BME280;5724;42.684;23.252;2023-04-30T06:34:23;94156.25;;;10.71;83.07
11339;BME280;5724;42.684;23.252;2023-04-30T06:36:49;94149.94;;;10.67;83.74
11339;BME280;5724;42.684;23.252;2023-04-30T06:39:15;94151.84;;;10.85;83.60
11339;BME280;5724;42.684;23.252;2023-04-30T06:41:40;94143.75;;;10.93;81.34
11339;BME280;5724;42.684;23.252;2023-04-30T06:44:07;94153.91;;;11.18;80.50
11339;BME280;5724;42.684;23.252;2023-04-30T06:46:33;94142.06;;;11.34;80.46
11339;BME280;5724;42.684;23.252;2023-04-30T06:48:59;94147.19;;;11.65;80.83
11339;BME280;5724;42.684;23.252;2023-04-30T06:51:24;94159.84;;;11.77;79.59
11339;BME280;5724;42.684;23.252;2023-04-30T06:53:50;94158.16;;;11.95;78.95
11339;BME280;5724;42.684;23.252;2023-04-30T06:56:16;94165.66;;;11.98;78.97
11339;BME280;5724;42.684;23.252;2023-04-30T06:58:41;94161.00;;;12.02;78.54
11339;BME280;5724;42.684;23.252;2023-04-30T07:01:07;94161.97;;;12.17;78.68
11339;BME280;5724;42.684;23.252;2023-04-30T07:03:33;94169.41;;;12.50;78.44
11339;BME280;5724;42.684;23.252;2023-04-30T07:05:59;94163.41;;;12.75;77.33
11339;BME280;5724;42.684;23.252;2023-04-30T07:08:24;94163.13;;;12.87;76.62
11339;BME280;5724;42.684;23.252;2023-04-30T07:10:50;94162.28;;;12.83;75.53
11339;BME280;5724;42.684;23.252;2023-04-30T07:13:15;94168.69;;;12.94;75.13
11339;BME280;5724;42.684;23.252;2023-04-30T07:15:41;94169.19;;;13.10;75.10
11339;BME280;5724;42.684;23.252;2023-04-30T07:18:06;94167.75;;;13.20;74.87
11339;BME280;5724;42.684;23.252;2023-04-30T07:20:32;94172.22;;;12.95;74.16
11339;BME280;5724;42.684;23.252;2023-04-30T07:22:58;94169.66;;;13.16;73.48
11339;BME280;5724;42.684;23.252;2023-04-30T07:25:23;94164.84;;;13.06;73.00
11339;BME280;5724;42.684;23.252;2023-04-30T07:27:50;94168.22;;;13.29;73.02
11339;BME280;5724;42.684;23.252;2023-04-30T07:30:17;94156.56;;;12.99;71.84
11339;BME280;5724;42.684;23.252;2023-04-30T07:32:42;94168.38;;;13.06;72.54
11339;BME280;5724;42.684;23.252;2023-04-30T07:35:08;94173.16;;;13.13;72.11
11339;BME280;5724;42.684;23.252;2023-04-30T07:37:33;94175.91;;;13.16;72.34
11339;BME280;5724;42.684;23.252;2023-04-30T07:39:59;94179.06;;;13.18;71.32
11339;BME280;5724;42.684;23.252;2023-04-30T07:42:25;94172.25;;;13.02;71.04
11339;BME280;5724;42.684;23.252;2023-04-30T07:44:50;94175.38;;;13.00;71.02
11339;BME280;5724;42.684;23.252;2023-04-30T07:47:17;94180.94;;;13.07;70.53
11339;BME280;5724;42.684;23.252;2023-04-30T07:49:45;94183.59;;;12.97;68.42
11339;BME280;5724;42.684;23.252;2023-04-30T07:52:11;94179.66;;;12.98;70.84
11339;BME280;5724;42.684;23.252;2023-04-30T07:54:37;94178.88;;;12.97;71.23
11339;BME280;5724;42.684;23.252;2023-04-30T07:57:04;94180.06;;;12.96;69.16
11339;BME280;5724;42.684;23.252;2023-04-30T07:59:30;94178.63;;;13.13;69.43
11339;BME280;5724;42.684;23.252;2023-04-30T08:01:56;94182.69;;;13.26;68.81
11339;BME280;5724;42.684;23.252;2023-04-30T08:04:21;94178.41;;;13.29;68.20
11339;BME280;5724;42.684;23.252;2023-04-30T08:06:47;94185.97;;;13.42;68.42
11339;BME280;5724;42.684;23.252;2023-04-30T08:09:12;94187.41;;;13.26;66.76
11339;BME280;5724;42.684;23.252;2023-04-30T08:11:37;94179.31;;;13.43;67.01
11339;BME280;5724;42.684;23.252;2023-04-30T08:14:03;94191.06;;;13.44;65.87
11339;BME280;5724;42.684;23.252;2023-04-30T08:16:29;94194.56;;;13.41;66.27
11339;BME280;5724;42.684;23.252;2023-04-30T08:18:55;94189.91;;;13.45;65.55
11339;BME280;5724;42.684;23.252;2023-04-30T08:21:20;94181.75;;;13.56;65.02
11339;BME280;5724;42.684;23.252;2023-04-30T08:23:46;94192.78;;;13.66;63.69
11339;BME280;5724;42.684;23.252;2023-04-30T08:26:11;94184.47;;;13.52;63.79
11339;BME280;5724;42.684;23.252;2023-04-30T08:28:37;94191.94;;;13.55;64.02
11339;BME280;5724;42.684;23.252;2023-04-30T08:31:02;94188.03;;;13.56;63.67
11339;BME280;5724;42.684;23.252;2023-04-30T08:33:28;94185.06;;;13.86;63.59
11339;BME280;5724;42.684;23.252;2023-04-30T08:35:53;94196.63;;;14.17;63.61
11339;BME280;5724;42.684;23.252;2023-04-30T08:38:18;94185.72;;;14.31;60.80
11339;BME280;5724;42.684;23.252;2023-04-30T08:40:48;94185.81;;;14.52;61.06
11339;BME280;5724;42.684;23.252;2023-04-30T08:43:17;94183.09;;;14.67;60.93
11339;BME280;5724;42.684;23.252;2023-04-30T08:45:43;94188.44;;;14.27;58.12
11339;BME280;5724;42.684;23.252;2023-04-30T08:48:09;94180.22;;;14.31;59.40
11339;BME280;5724;42.684;23.252;2023-04-30T08:50:36;94183.41;;;14.40;57.92
11339;BME280;5724;42.684;23.252;2023-04-30T08:53:02;94175.91;;;14.30;58.27
11339;BME280;5724;42.684;23.252;2023-04-30T08:55:27;94173.19;;;14.41;59.02
11339;BME280;5724;42.684;23.252;2023-04-30T08:57:53;94171.31;;;14.66;57.01
11339;BME280;5724;42.684;23.252;2023-04-30T09:00:18;94162.75;;;14.96;55.80
11339;BME280;5724;42.684;23.252;2023-04-30T09:02:45;94168.69;;;15.27;55.92
11339;BME280;5724;42.684;23.252;2023-04-30T09:05:13;94163.97;;;15.63;55.15
11339;BME280;5724;42.684;23.252;2023-04-30T09:07:40;94152.16;;;15.66;55.19
11339;BME280;5724;42.684;23.252;2023-04-30T09:10:27;94161.91;;;16.10;54.57
11339;BME280;5724;42.684;23.252;2023-04-30T09:13:04;94148.81;;;16.42;54.25
11339;BME280;5724;42.684;23.252;2023-04-30T09:15:30;94151.03;;;16.76;53.17
11339;BME280;5724;42.684;23.252;2023-04-30T09:18:15;94142.88;;;16.47;51.77
11339;BME280;5724;42.684;23.252;2023-04-30T09:20:59;94147.50;;;16.72;51.74
11339;BME280;5724;42.684;23.252;2023-04-30T09:23:28;94143.00;;;16.99;52.33
11339;BME280;5724;42.684;23.252;2023-04-30T09:25:54;94137.66;;;17.30;50.81
11339;BME280;5724;42.684;23.252;2023-04-30T09:28:22;94142.00;;;17.31;51.00
11339;BME280;5724;42.684;23.252;2023-04-30T09:30:49;94132.19;;;17.71;50.27
11339;BME280;5724;42.684;23.252;2023-04-30T09:33:16;94126.09;;;17.90;49.10
11339;BME280;5724;42.684;23.252;2023-04-30T09:35:42;94125.28;;;18.27;48.43
11339;BME280;5724;42.684;23.252;2023-04-30T09:38:25;94119.19;;;17.64;49.55
11339;BME280;5724;42.684;23.252;2023-04-30T09:40:50;94123.78;;;17.37;49.43
11339;BME280;5724;42.684;23.252;2023-04-30T09:43:15;94115.16;;;17.31;48.31
11339;BME280;5724;42.684;23.252;2023-04-30T09:45:45;94116.34;;;17.75;48.97
11339;BME280;5724;42.684;23.252;2023-04-30T09:48:17;94115.06;;;17.42;49.92
11339;BME280;5724;42.684;23.252;2023-04-30T09:50:43;94116.50;;;17.12;49.32
11339;BME280;5724;42.684;23.252;2023-04-30T09:53:11;94111.38;;;17.11;50.69
11339;BME280;5724;42.684;23.252;2023-04-30T09:55:43;94115.63;;;17.67;49.51
11339;BME280;5724;42.684;23.252;2023-04-30T09:58:11;94101.41;;;17.72;48.03
11339;BME280;5724;42.684;23.252;2023-04-30T10:00:37;94104.50;;;17.78;47.90
11339;BME280;5724;42.684;23.252;2023-04-30T10:03:11;94100.50;;;17.83;48.79
11339;BME280;5724;42.684;23.252;2023-04-30T10:05:40;94096.78;;;17.55;48.95
11339;BME280;5724;42.684;23.252;2023-04-30T10:08:12;94100.53;;;17.38;49.66
11339;BME280;5724;42.684;23.252;2023-04-30T10:10:39;94103.84;;;17.19;48.95
11339;BME280;5724;42.684;23.252;2023-04-30T10:13:10;94108.25;;;17.09;48.73
11339;BME280;5724;42.684;23.252;2023-04-30T10:15:42;94103.19;;;16.97;49.75
11339;BME280;5724;42.684;23.252;2023-04-30T10:18:16;94113.69;;;16.50;51.48
11339;BME280;5724;42.684;23.252;2023-04-30T10:20:45;94136.44;;;15.45;57.18
11339;BME280;5724;42.684;23.252;2023-04-30T10:23:11;94131.25;;;14.58;62.37
11339;BME280;5724;42.684;23.252;2023-04-30T10:25:37;94162.38;;;13.93;62.65
11339;BME280;5724;42.684;23.252;2023-04-30T10:28:03;94147.44;;;13.28;71.42
11339;BME280;5724;42.684;23.252;2023-04-30T10:30:28;94140.38;;;13.27;73.01
11339;BME280;5724;42.684;23.252;2023-04-30T10:33:18;94141.84;;;13.17;75.62
11339;BME280;5724;42.684;23.252;2023-04-30T10:38:24;94143.41;;;13.18;75.46
11339;BME280;5724;42.684;23.252;2023-04-30T10:40:54;94139.00;;;13.55;75.21
11339;BME280;5724;42.684;23.252;2023-04-30T10:43:26;94128.22;;;13.90;70.69
11339;BME280;5724;42.684;23.252;2023-04-30T10:45:58;94128.00;;;14.35;71.07
11339;BME280;5724;42.684;23.252;2023-04-30T10:48:25;94114.34;;;14.52;64.77
11339;BME280;5724;42.684;23.252;2023-04-30T10:50:54;94117.09;;;14.56;59.92
11339;BME280;5724;42.684;23.252;2023-04-30T10:53:20;94123.81;;;14.76;62.80
11339;BME280;5724;42.684;23.252;2023-04-30T10:55:59;94116.31;;;14.59;61.14
11339;BME280;5724;42.684;23.252;2023-04-30T10:58:32;94115.94;;;14.71;61.19
11339;BME280;5724;42.684;23.252;2023-04-30T11:01:13;94118.34;;;15.08;58.08
11339;BME280;5724;42.684;23.252;2023-04-30T11:04:10;94112.81;;;15.69;58.54
11339;BME280;5724;42.684;23.252;2023-04-30T11:06:55;94106.75;;;16.20;55.28
11339;BME280;5724;42.684;23.252;2023-04-30T11:09:42;94105.91;;;16.30;56.83
11339;BME280;5724;42.684;23.252;2023-04-30T11:14:40;94108.44;;;16.77;53.06
11339;BME280;5724;42.684;23.252;2023-04-30T11:17:06;94112.41;;;16.79;54.45
11339;BME280;5724;42.684;23.252;2023-04-30T11:19:32;94114.75;;;16.81;54.07
11339;BME280;5724;42.684;23.252;2023-04-30T11:24:53;94107.16;;;16.15;53.51
11339;BME280;5724;42.684;23.252;2023-04-30T11:27:29;94106.75;;;16.17;52.73
11339;BME280;5724;42.684;23.252;2023-04-30T11:29:56;94106.25;;;16.40;52.59
11339;BME280;5724;42.684;23.252;2023-04-30T11:32:24;94103.78;;;16.59;51.65
11339;BME280;5724;42.684;23.252;2023-04-30T11:34:50;94095.47;;;16.74;51.38
11339;BME280;5724;42.684;23.252;2023-04-30T11:37:28;94107.41;;;16.46;51.69
11339;BME280;5724;42.684;23.252;2023-04-30T11:39:56;94094.91;;;16.27;52.67
11339;BME280;5724;42.684;23.252;2023-04-30T11:42:21;94094.44;;;16.39;52.11
11339;BME280;5724;42.684;23.252;2023-04-30T11:44:47;94094.47;;;16.36;52.44
11339;BME280;5724;42.684;23.252;2023-04-30T11:47:13;94100.72;;;16.50;52.80
11339;BME280;5724;42.684;23.252;2023-04-30T11:49:40;94087.25;;;16.63;52.05
11339;BME280;5724;42.684;23.252;2023-04-30T11:52:06;94076.50;;;16.83;50.50
11339;BME280;5724;42.684;23.252;2023-04-30T11:54:35;94088.75;;;17.30;51.41
11339;BME280;5724;42.684;23.252;2023-04-30T11:57:02;94082.75;;;17.39;51.64
11339;BME280;5724;42.684;23.252;2023-04-30T11:59:29;94072.69;;;17.59;54.38
11339;BME280;5724;42.684;23.252;2023-04-30T12:01:55;94078.69;;;17.92;56.02
11339;BME280;5724;42.684;23.252;2023-04-30T12:04:21;94070.91;;;18.14;53.39
11339;BME280;5724;42.684;23.252;2023-04-30T12:06:47;94081.88;;;18.24;51.95
11339;BME280;5724;42.684;23.252;2023-04-30T12:09:14;94087.13;;;17.78;51.47
11339;BME280;5724;42.684;23.252;2023-04-30T12:11:39;94094.53;;;17.43;54.31
11339;BME280;5724;42.684;23.252;2023-04-30T12:14:07;94082.50;;;17.64;54.64
11339;BME280;5724;42.684;23.252;2023-04-30T12:16:53;94079.53;;;17.48;56.07
11339;BME280;5724;42.684;23.252;2023-04-30T12:19:20;94093.59;;;17.60;55.90
11339;BME280;5724;42.684;23.252;2023-04-30T12:21:47;94100.13;;;17.36;55.24
11339;BME280;5724;42.684;23.252;2023-04-30T12:24:14;94105.66;;;16.84;57.50
11339;BME280;5724;42.684;23.252;2023-04-30T12:26:41;94102.41;;;16.26;58.39
11339;BME280;5724;42.684;23.252;2023-04-30T12:29:13;94125.69;;;16.08;58.51
11339;BME280;5724;42.684;23.252;2023-04-30T12:31:40;94114.72;;;15.90;58.53
11339;BME280;5724;42.684;23.252;2023-04-30T12:34:10;94116.75;;;15.68;58.70
11339;BME280;5724;42.684;23.252;2023-04-30T12:36:38;94103.00;;;15.61;59.80
11339;BME280;5724;42.684;23.252;2023-04-30T12:39:11;94113.59;;;15.73;61.58
11339;BME280;5724;42.684;23.252;2023-04-30T12:41:42;94113.56;;;15.80;61.82
11339;BME280;5724;42.684;23.252;2023-04-30T12:46:42;94115.09;;;16.02;62.26
11339;BME280;5724;42.684;23.252;2023-04-30T12:49:09;94120.59;;;15.99;61.89
11339;BME280;5724;42.684;23.252;2023-04-30T12:51:35;94128.88;;;15.92;62.10
11339;BME280;5724;42.684;23.252;2023-04-30T12:54:01;94117.44;;;16.00;61.49
11339;BME280;5724;42.684;23.252;2023-04-30T12:56:26;94128.00;;;16.23;62.41
11339;BME280;5724;42.684;23.252;2023-04-30T12:58:52;94134.63;;;16.40;62.60
11339;BME280;5724;42.684;23.252;2023-04-30T13:01:21;94117.69;;;16.38;62.33
11339;BME280;5724;42.684;23.252;2023-04-30T13:03:50;94114.53;;;16.43;61.52
11339;BME280;5724;42.684;23.252;2023-04-30T13:06:16;94112.22;;;16.35;61.79
11339;BME280;5724;42.684;23.252;2023-04-30T13:08:43;94107.44;;;16.42;61.91
11339;BME280;5724;42.684;23.252;2023-04-30T13:11:09;94102.56;;;16.75;60.75
11339;BME280;5724;42.684;23.252;2023-04-30T13:13:34;94097.50;;;16.63;62.72
11339;BME280;5724;42.684;23.252;2023-04-30T13:16:00;94078.69;;;16.43;63.50
11339;BME280;5724;42.684;23.252;2023-04-30T13:18:25;94083.00;;;16.44;63.34
11339;BME280;5724;42.684;23.252;2023-04-30T13:20:50;94074.84;;;16.23;63.55
11339;BME280;5724;42.684;23.252;2023-04-30T13:23:16;94085.03;;;16.33;63.50
11339;BME280;5724;42.684;23.252;2023-04-30T13:25:42;94056.00;;;16.07;62.91
11339;BME280;5724;42.684;23.252;2023-04-30T13:28:08;94072.50;;;16.18;63.11
11339;BME280;5724;42.684;23.252;2023-04-30T13:30:33;94076.44;;;16.17;62.15
11339;BME280;5724;42.684;23.252;2023-04-30T13:32:59;94065.41;;;16.17;62.52
11339;BME280;5724;42.684;23.252;2023-04-30T13:35:25;94067.34;;;16.27;61.29